Terminal Aerodrome Forecast
Issued by NWS Medford, OR

Home | Current Version | Previous Version | Text Only | Print | Product List | Glossary On
Versions: 1 2 3 4 5 6 7 8 9 10 11 12 13 14 15 16 17
788
FTUS46 KMFR 270520
TAFMFR
TAF
KMFR 270520Z 2706/2806 VRB03KT P6SM SCT050
     FM270800 VRB02KT P6SM FEW030
     FM272100 30005KT P6SM FEW250
     FM280000 32009KT P6SM SKC=

USA.gov is the U.S. government's official web portal to all federal, state and local government web resources and services.